Main page
METAR-TAF:

METAR-TAF

Airports :

Churchill, Manitoba, Canada

Churchill Airport

latitude: 58-44N, longitude: 094-04W, elevation: 28 m

Current weather observation

The report was made 1 hour and 12 minutes ago, at 22:00 UTC
Wind 6 kt from the North/Northeast
Temperature 15°C
Humidity 48%
Pressure 1020 hPa
Visibility: 24.1 km
Few clouds at a height of 3000 ft

METAR: CYYQ 232200Z 03006KT 15SM FEW030 15/04 A3013 RMK FU2 SLP207

Time: 18:12 (23:12 UTC)

Forecast

The report was made 5 hours and 34 minutes ago, at 17:38 UTC
Forecast valid from 23 at 18 UTC to 24 at 18 UTC
Wind 8 kt from the North/Northwest
Visibility: 10 km
Clear sky
Becoming
from 24 at 00 UTC to 24 at 02 UTC
Wind 6 kt from the South

TAF: CYYQ 231738Z 2318/2418 34008KT P6SM SKC BECMG 2400/2402 18006KT RMK NXT FCST BY 240000Z

Weather observations and forecasts of more than 4000 airports (METAR and TAF reports).

The available stations are represented by yellow and red dots on the map.

Hover mouse over dot to see the name of the station.

Then click to see weather observations and forecasts.

To change the map : click on the green buttons with a black cross to zoom in, on the green button with a dash to zoom out, or on the green arrows for adjacent maps.


METAR-TAF: